sensor_id;sensor_type;location;lat;lon;timestamp;P1;durP1;ratioP1;P2;durP2;ratioP2
13485;SDS011;6815;59.336;17.998;2023-03-11T00:02:15;9.60;;;6.37;;
13485;SDS011;6815;59.336;17.998;2023-03-11T00:04:40;9.13;;;6.37;;
13485;SDS011;6815;59.336;17.998;2023-03-11T00:07:07;12.07;;;7.63;;
13485;SDS011;6815;59.336;17.998;2023-03-11T00:09:35;12.03;;;7.30;;
13485;SDS011;6815;59.336;17.998;2023-03-11T00:12:00;11.87;;;7.40;;
13485;SDS011;6815;59.336;17.998;2023-03-11T00:14:26;13.40;;;7.00;;
13485;SDS011;6815;59.336;17.998;2023-03-11T00:16:52;10.63;;;6.90;;
13485;SDS011;6815;59.336;17.998;2023-03-11T00:19:17;11.97;;;7.00;;
13485;SDS011;6815;59.336;17.998;2023-03-11T00:21:43;10.43;;;6.70;;
13485;SDS011;6815;59.336;17.998;2023-03-11T00:24:08;11.17;;;7.20;;
13485;SDS011;6815;59.336;17.998;2023-03-11T00:26:34;10.50;;;6.77;;
13485;SDS011;6815;59.336;17.998;2023-03-11T00:28:59;12.63;;;7.00;;
13485;SDS011;6815;59.336;17.998;2023-03-11T00:31:25;9.40;;;5.93;;
13485;SDS011;6815;59.336;17.998;2023-03-11T00:33:53;13.37;;;5.80;;
13485;SDS011;6815;59.336;17.998;2023-03-11T00:36:28;11.43;;;6.33;;
13485;SDS011;6815;59.336;17.998;2023-03-11T00:38:56;9.63;;;6.30;;
13485;SDS011;6815;59.336;17.998;2023-03-11T00:41:22;10.60;;;6.03;;
13485;SDS011;6815;59.336;17.998;2023-03-11T00:43:48;11.13;;;6.40;;
13485;SDS011;6815;59.336;17.998;2023-03-11T00:46:14;10.33;;;6.40;;
13485;SDS011;6815;59.336;17.998;2023-03-11T00:48:39;11.07;;;6.83;;
13485;SDS011;6815;59.336;17.998;2023-03-11T00:51:13;14.33;;;7.40;;
13485;SDS011;6815;59.336;17.998;2023-03-11T00:53:39;10.17;;;6.63;;
13485;SDS011;6815;59.336;17.998;2023-03-11T00:56:10;11.93;;;7.20;;
13485;SDS011;6815;59.336;17.998;2023-03-11T00:58:38;11.43;;;7.30;;
13485;SDS011;6815;59.336;17.998;2023-03-11T01:01:08;9.27;;;6.63;;
13485;SDS011;6815;59.336;17.998;2023-03-11T01:03:35;8.90;;;6.00;;
13485;SDS011;6815;59.336;17.998;2023-03-11T01:06:01;10.57;;;6.37;;
13485;SDS011;6815;59.336;17.998;2023-03-11T01:08:26;8.63;;;5.60;;
13485;SDS011;6815;59.336;17.998;2023-03-11T01:10:53;9.50;;;6.33;;
13485;SDS011;6815;59.336;17.998;2023-03-11T01:13:19;7.77;;;5.53;;
13485;SDS011;6815;59.336;17.998;2023-03-11T01:15:45;8.77;;;5.43;;
13485;SDS011;6815;59.336;17.998;2023-03-11T01:18:10;9.50;;;5.93;;
13485;SDS011;6815;59.336;17.998;2023-03-11T01:20:36;10.10;;;5.60;;
13485;SDS011;6815;59.336;17.998;2023-03-11T01:23:03;10.73;;;6.13;;
13485;SDS011;6815;59.336;17.998;2023-03-11T01:25:29;10.50;;;5.60;;
13485;SDS011;6815;59.336;17.998;2023-03-11T01:27:54;9.30;;;5.50;;
13485;SDS011;6815;59.336;17.998;2023-03-11T01:30:21;9.27;;;6.20;;
13485;SDS011;6815;59.336;17.998;2023-03-11T01:32:48;11.13;;;5.73;;
13485;SDS011;6815;59.336;17.998;2023-03-11T01:35:14;9.43;;;5.60;;
13485;SDS011;6815;59.336;17.998;2023-03-11T01:37:41;10.07;;;5.93;;
13485;SDS011;6815;59.336;17.998;2023-03-11T01:40:07;10.20;;;5.93;;
13485;SDS011;6815;59.336;17.998;2023-03-11T01:42:37;10.80;;;5.50;;
13485;SDS011;6815;59.336;17.998;2023-03-11T01:45:11;10.33;;;5.23;;
13485;SDS011;6815;59.336;17.998;2023-03-11T01:47:48;8.30;;;5.07;;
13485;SDS011;6815;59.336;17.998;2023-03-11T01:50:13;9.20;;;5.70;;
13485;SDS011;6815;59.336;17.998;2023-03-11T01:52:39;7.47;;;4.77;;
13485;SDS011;6815;59.336;17.998;2023-03-11T01:55:06;10.17;;;5.33;;
13485;SDS011;6815;59.336;17.998;2023-03-11T01:57:34;8.80;;;4.67;;
13485;SDS011;6815;59.336;17.998;2023-03-11T02:00:03;7.20;;;5.23;;
13485;SDS011;6815;59.336;17.998;2023-03-11T02:02:35;10.10;;;5.13;;
13485;SDS011;6815;59.336;17.998;2023-03-11T02:05:05;9.40;;;4.87;;
13485;SDS011;6815;59.336;17.998;2023-03-11T02:07:34;8.23;;;5.43;;
13485;SDS011;6815;59.336;17.998;2023-03-11T02:10:00;7.60;;;5.20;;
13485;SDS011;6815;59.336;17.998;2023-03-11T02:12:27;8.37;;;4.63;;
13485;SDS011;6815;59.336;17.998;2023-03-11T02:14:58;8.63;;;4.87;;
13485;SDS011;6815;59.336;17.998;2023-03-11T02:17:24;8.50;;;4.70;;
13485;SDS011;6815;59.336;17.998;2023-03-11T02:22:15;8.17;;;4.87;;
13485;SDS011;6815;59.336;17.998;2023-03-11T02:24:45;8.83;;;4.80;;
13485;SDS011;6815;59.336;17.998;2023-03-11T02:27:21;7.70;;;4.80;;
13485;SDS011;6815;59.336;17.998;2023-03-11T02:29:49;7.53;;;4.70;;
13485;SDS011;6815;59.336;17.998;2023-03-11T02:32:16;10.73;;;4.67;;
13485;SDS011;6815;59.336;17.998;2023-03-11T02:34:43;7.53;;;4.70;;
13485;SDS011;6815;59.336;17.998;2023-03-11T02:37:09;8.37;;;4.90;;
13485;SDS011;6815;59.336;17.998;2023-03-11T02:39:37;6.47;;;3.80;;
13485;SDS011;6815;59.336;17.998;2023-03-11T02:44:42;5.67;;;3.87;;
13485;SDS011;6815;59.336;17.998;2023-03-11T02:47:10;7.03;;;3.87;;
13485;SDS011;6815;59.336;17.998;2023-03-11T02:49:36;6.50;;;3.50;;
13485;SDS011;6815;59.336;17.998;2023-03-11T02:52:02;6.60;;;3.50;;
13485;SDS011;6815;59.336;17.998;2023-03-11T02:54:27;5.40;;;3.50;;
13485;SDS011;6815;59.336;17.998;2023-03-11T02:56:53;5.80;;;4.03;;
13485;SDS011;6815;59.336;17.998;2023-03-11T02:59:18;7.50;;;3.80;;
13485;SDS011;6815;59.336;17.998;2023-03-11T03:01:43;5.40;;;3.40;;
13485;SDS011;6815;59.336;17.998;2023-03-11T03:04:09;7.70;;;4.43;;
13485;SDS011;6815;59.336;17.998;2023-03-11T03:06:34;7.27;;;4.17;;
13485;SDS011;6815;59.336;17.998;2023-03-11T03:09:00;6.83;;;4.23;;
13485;SDS011;6815;59.336;17.998;2023-03-11T03:11:25;6.67;;;4.17;;
13485;SDS011;6815;59.336;17.998;2023-03-11T03:13:51;7.77;;;4.50;;
13485;SDS011;6815;59.336;17.998;2023-03-11T03:16:16;5.47;;;4.13;;
13485;SDS011;6815;59.336;17.998;2023-03-11T03:18:42;7.97;;;4.17;;
13485;SDS011;6815;59.336;17.998;2023-03-11T03:21:07;7.53;;;4.33;;
13485;SDS011;6815;59.336;17.998;2023-03-11T03:23:33;10.07;;;4.67;;
13485;SDS011;6815;59.336;17.998;2023-03-11T03:26:01;7.60;;;4.77;;
13485;SDS011;6815;59.336;17.998;2023-03-11T03:28:27;7.77;;;4.57;;
13485;SDS011;6815;59.336;17.998;2023-03-11T03:30:53;6.70;;;4.43;;
13485;SDS011;6815;59.336;17.998;2023-03-11T03:33:18;6.30;;;3.97;;
13485;SDS011;6815;59.336;17.998;2023-03-11T03:35:44;6.07;;;3.83;;
13485;SDS011;6815;59.336;17.998;2023-03-11T03:38:10;6.80;;;3.63;;
13485;SDS011;6815;59.336;17.998;2023-03-11T03:40:35;5.77;;;3.00;;
13485;SDS011;6815;59.336;17.998;2023-03-11T03:43:01;5.23;;;2.93;;
13485;SDS011;6815;59.336;17.998;2023-03-11T03:45:26;5.27;;;2.70;;
13485;SDS011;6815;59.336;17.998;2023-03-11T03:47:52;5.03;;;3.23;;
13485;SDS011;6815;59.336;17.998;2023-03-11T03:50:17;6.47;;;2.90;;
13485;SDS011;6815;59.336;17.998;2023-03-11T03:52:43;6.20;;;3.57;;
13485;SDS011;6815;59.336;17.998;2023-03-11T03:55:08;5.60;;;3.20;;
13485;SDS011;6815;59.336;17.998;2023-03-11T03:57:35;6.97;;;3.20;;
13485;SDS011;6815;59.336;17.998;2023-03-11T04:00:00;5.97;;;3.30;;
13485;SDS011;6815;59.336;17.998;2023-03-11T04:02:26;4.57;;;3.00;;
13485;SDS011;6815;59.336;17.998;2023-03-11T04:04:51;4.97;;;3.20;;
13485;SDS011;6815;59.336;17.998;2023-03-11T04:07:17;4.33;;;3.03;;
13485;SDS011;6815;59.336;17.998;2023-03-11T04:09:42;5.17;;;2.93;;
13485;SDS011;6815;59.336;17.998;2023-03-11T04:12:14;7.10;;;2.77;;
13485;SDS011;6815;59.336;17.998;2023-03-11T04:14:41;4.63;;;2.73;;
13485;SDS011;6815;59.336;17.998;2023-03-11T04:17:07;5.33;;;3.10;;
13485;SDS011;6815;59.336;17.998;2023-03-11T04:19:37;5.27;;;3.40;;
13485;SDS011;6815;59.336;17.998;2023-03-11T04:22:03;4.17;;;2.67;;
13485;SDS011;6815;59.336;17.998;2023-03-11T04:24:29;4.50;;;3.03;;
13485;SDS011;6815;59.336;17.998;2023-03-11T04:26:54;6.07;;;3.47;;
13485;SDS011;6815;59.336;17.998;2023-03-11T04:29:19;5.43;;;3.43;;
13485;SDS011;6815;59.336;17.998;2023-03-11T04:31:45;4.77;;;3.40;;
13485;SDS011;6815;59.336;17.998;2023-03-11T04:34:10;5.10;;;3.40;;
13485;SDS011;6815;59.336;17.998;2023-03-11T04:36:36;5.23;;;3.53;;
13485;SDS011;6815;59.336;17.998;2023-03-11T04:39:01;6.00;;;3.37;;
13485;SDS011;6815;59.336;17.998;2023-03-11T04:41:27;5.87;;;3.40;;
13485;SDS011;6815;59.336;17.998;2023-03-11T04:43:53;5.87;;;2.93;;
13485;SDS011;6815;59.336;17.998;2023-03-11T04:46:18;5.40;;;2.90;;
13485;SDS011;6815;59.336;17.998;2023-03-11T04:48:44;4.00;;;2.87;;
13485;SDS011;6815;59.336;17.998;2023-03-11T04:51:09;4.97;;;3.30;;
13485;SDS011;6815;59.336;17.998;2023-03-11T04:53:34;4.50;;;2.90;;
13485;SDS011;6815;59.336;17.998;2023-03-11T04:56:00;4.27;;;3.20;;
13485;SDS011;6815;59.336;17.998;2023-03-11T04:58:25;5.73;;;3.37;;
13485;SDS011;6815;59.336;17.998;2023-03-11T05:00:51;5.73;;;2.77;;
13485;SDS011;6815;59.336;17.998;2023-03-11T05:03:17;5.93;;;3.10;;
13485;SDS011;6815;59.336;17.998;2023-03-11T05:05:44;5.20;;;3.17;;
13485;SDS011;6815;59.336;17.998;2023-03-11T05:08:10;5.03;;;2.77;;
13485;SDS011;6815;59.336;17.998;2023-03-11T05:10:35;4.37;;;2.93;;
13485;SDS011;6815;59.336;17.998;2023-03-11T05:13:02;4.30;;;2.67;;
13485;SDS011;6815;59.336;17.998;2023-03-11T05:15:27;3.60;;;2.50;;
13485;SDS011;6815;59.336;17.998;2023-03-11T05:17:55;5.33;;;3.40;;
13485;SDS011;6815;59.336;17.998;2023-03-11T05:20:21;6.00;;;3.13;;
13485;SDS011;6815;59.336;17.998;2023-03-11T05:22:46;5.20;;;2.80;;
13485;SDS011;6815;59.336;17.998;2023-03-11T05:25:12;4.83;;;3.10;;
13485;SDS011;6815;59.336;17.998;2023-03-11T05:27:37;4.47;;;3.00;;
13485;SDS011;6815;59.336;17.998;2023-03-11T05:30:03;6.60;;;3.23;;
13485;SDS011;6815;59.336;17.998;2023-03-11T05:32:29;4.83;;;3.10;;
13485;SDS011;6815;59.336;17.998;2023-03-11T05:34:54;6.87;;;3.23;;
13485;SDS011;6815;59.336;17.998;2023-03-11T05:37:20;5.57;;;3.07;;
13485;SDS011;6815;59.336;17.998;2023-03-11T05:39:45;5.37;;;2.83;;
13485;SDS011;6815;59.336;17.998;2023-03-11T05:42:11;4.00;;;3.00;;
13485;SDS011;6815;59.336;17.998;2023-03-11T05:44:36;5.33;;;2.80;;
13485;SDS011;6815;59.336;17.998;2023-03-11T05:47:02;4.00;;;2.87;;
13485;SDS011;6815;59.336;17.998;2023-03-11T05:49:27;4.77;;;2.93;;
13485;SDS011;6815;59.336;17.998;2023-03-11T05:51:53;6.70;;;3.00;;
13485;SDS011;6815;59.336;17.998;2023-03-11T05:54:18;5.30;;;2.97;;
13485;SDS011;6815;59.336;17.998;2023-03-11T05:56:45;4.83;;;2.90;;
13485;SDS011;6815;59.336;17.998;2023-03-11T05:59:13;4.90;;;2.67;;
13485;SDS011;6815;59.336;17.998;2023-03-11T06:01:40;4.07;;;2.73;;
13485;SDS011;6815;59.336;17.998;2023-03-11T06:04:07;4.37;;;2.80;;
13485;SDS011;6815;59.336;17.998;2023-03-11T06:06:33;4.17;;;2.60;;
13485;SDS011;6815;59.336;17.998;2023-03-11T06:08:58;4.53;;;3.00;;
13485;SDS011;6815;59.336;17.998;2023-03-11T06:11:24;3.63;;;2.60;;
13485;SDS011;6815;59.336;17.998;2023-03-11T06:13:53;3.07;;;2.30;;
13485;SDS011;6815;59.336;17.998;2023-03-11T06:16:20;4.43;;;2.70;;
13485;SDS011;6815;59.336;17.998;2023-03-11T06:18:46;3.23;;;2.30;;
13485;SDS011;6815;59.336;17.998;2023-03-11T06:21:14;3.70;;;2.30;;
13485;SDS011;6815;59.336;17.998;2023-03-11T06:23:42;3.57;;;2.60;;
13485;SDS011;6815;59.336;17.998;2023-03-11T06:26:08;3.03;;;2.40;;
13485;SDS011;6815;59.336;17.998;2023-03-11T06:28:36;4.00;;;2.77;;
13485;SDS011;6815;59.336;17.998;2023-03-11T06:31:05;3.43;;;2.70;;
13485;SDS011;6815;59.336;17.998;2023-03-11T06:33:32;3.33;;;2.27;;
13485;SDS011;6815;59.336;17.998;2023-03-11T06:35:58;3.83;;;2.40;;
13485;SDS011;6815;59.336;17.998;2023-03-11T06:38:25;4.13;;;2.47;;
13485;SDS011;6815;59.336;17.998;2023-03-11T06:40:51;4.83;;;2.43;;
13485;SDS011;6815;59.336;17.998;2023-03-11T06:43:16;4.13;;;2.33;;
13485;SDS011;6815;59.336;17.998;2023-03-11T06:45:42;4.03;;;2.30;;
13485;SDS011;6815;59.336;17.998;2023-03-11T06:48:07;3.87;;;2.23;;
13485;SDS011;6815;59.336;17.998;2023-03-11T06:50:33;2.83;;;2.23;;
13485;SDS011;6815;59.336;17.998;2023-03-11T06:52:58;3.70;;;1.90;;
13485;SDS011;6815;59.336;17.998;2023-03-11T06:55:24;3.83;;;1.97;;
13485;SDS011;6815;59.336;17.998;2023-03-11T06:57:49;5.50;;;2.00;;
13485;SDS011;6815;59.336;17.998;2023-03-11T07:00:15;3.90;;;2.50;;
13485;SDS011;6815;59.336;17.998;2023-03-11T07:02:41;4.80;;;2.60;;
13485;SDS011;6815;59.336;17.998;2023-03-11T07:05:07;3.07;;;2.10;;
13485;SDS011;6815;59.336;17.998;2023-03-11T07:07:32;3.20;;;1.97;;
13485;SDS011;6815;59.336;17.998;2023-03-11T07:09:58;3.73;;;2.10;;
13485;SDS011;6815;59.336;17.998;2023-03-11T07:12:24;2.43;;;1.93;;
13485;SDS011;6815;59.336;17.998;2023-03-11T07:14:53;5.20;;;2.23;;
13485;SDS011;6815;59.336;17.998;2023-03-11T07:17:23;4.13;;;1.87;;
13485;SDS011;6815;59.336;17.998;2023-03-11T07:19:49;4.60;;;2.07;;
13485;SDS011;6815;59.336;17.998;2023-03-11T07:22:15;2.73;;;1.90;;
13485;SDS011;6815;59.336;17.998;2023-03-11T07:24:40;2.90;;;1.83;;
13485;SDS011;6815;59.336;17.998;2023-03-11T07:27:10;2.37;;;1.80;;
13485;SDS011;6815;59.336;17.998;2023-03-11T07:29:35;3.60;;;2.10;;
13485;SDS011;6815;59.336;17.998;2023-03-11T07:32:01;3.13;;;1.83;;
13485;SDS011;6815;59.336;17.998;2023-03-11T07:34:26;2.57;;;1.73;;
13485;SDS011;6815;59.336;17.998;2023-03-11T07:36:52;2.70;;;2.10;;
13485;SDS011;6815;59.336;17.998;2023-03-11T07:39:17;2.63;;;1.93;;
13485;SDS011;6815;59.336;17.998;2023-03-11T07:41:43;3.57;;;1.73;;
13485;SDS011;6815;59.336;17.998;2023-03-11T07:44:10;8.30;;;2.50;;
13485;SDS011;6815;59.336;17.998;2023-03-11T07:46:40;5.13;;;2.40;;
13485;SDS011;6815;59.336;17.998;2023-03-11T07:49:06;4.23;;;1.87;;
13485;SDS011;6815;59.336;17.998;2023-03-11T07:51:33;5.77;;;2.10;;
13485;SDS011;6815;59.336;17.998;2023-03-11T07:54:02;5.30;;;2.20;;
13485;SDS011;6815;59.336;17.998;2023-03-11T07:56:29;3.23;;;2.40;;
13485;SDS011;6815;59.336;17.998;2023-03-11T07:58:58;2.20;;;1.80;;
13485;SDS011;6815;59.336;17.998;2023-03-11T08:01:32;4.77;;;2.50;;
13485;SDS011;6815;59.336;17.998;2023-03-11T08:04:06;4.70;;;2.50;;
13485;SDS011;6815;59.336;17.998;2023-03-11T08:06:34;3.17;;;2.03;;
13485;SDS011;6815;59.336;17.998;2023-03-11T08:09:02;4.50;;;2.00;;
13485;SDS011;6815;59.336;17.998;2023-03-11T08:11:30;2.40;;;2.20;;
13485;SDS011;6815;59.336;17.998;2023-03-11T08:13:56;4.00;;;2.50;;
13485;SDS011;6815;59.336;17.998;2023-03-11T08:16:22;5.33;;;2.13;;
13485;SDS011;6815;59.336;17.998;2023-03-11T08:18:48;2.47;;;1.87;;
13485;SDS011;6815;59.336;17.998;2023-03-11T08:21:17;2.97;;;2.40;;
13485;SDS011;6815;59.336;17.998;2023-03-11T08:23:48;3.63;;;2.37;;
13485;SDS011;6815;59.336;17.998;2023-03-11T08:26:15;3.97;;;2.00;;
13485;SDS011;6815;59.336;17.998;2023-03-11T08:28:45;2.87;;;2.13;;
13485;SDS011;6815;59.336;17.998;2023-03-11T08:31:12;3.63;;;2.10;;
13485;SDS011;6815;59.336;17.998;2023-03-11T08:33:41;4.37;;;2.17;;
13485;SDS011;6815;59.336;17.998;2023-03-11T08:36:13;4.77;;;2.13;;
13485;SDS011;6815;59.336;17.998;2023-03-11T08:38:39;3.43;;;2.53;;
13485;SDS011;6815;59.336;17.998;2023-03-11T08:41:08;6.13;;;2.40;;
13485;SDS011;6815;59.336;17.998;2023-03-11T08:43:34;5.63;;;2.43;;
13485;SDS011;6815;59.336;17.998;2023-03-11T08:46:00;4.13;;;3.10;;
13485;SDS011;6815;59.336;17.998;2023-03-11T08:48:27;3.30;;;2.20;;
13485;SDS011;6815;59.336;17.998;2023-03-11T08:50:53;3.63;;;2.37;;
13485;SDS011;6815;59.336;17.998;2023-03-11T08:53:19;2.50;;;2.30;;
13485;SDS011;6815;59.336;17.998;2023-03-11T08:55:44;3.53;;;2.00;;
13485;SDS011;6815;59.336;17.998;2023-03-11T08:58:09;3.50;;;2.10;;
13485;SDS011;6815;59.336;17.998;2023-03-11T09:00:35;3.23;;;2.30;;
13485;SDS011;6815;59.336;17.998;2023-03-11T09:03:01;3.87;;;2.30;;
13485;SDS011;6815;59.336;17.998;2023-03-11T09:05:26;3.27;;;2.57;;
13485;SDS011;6815;59.336;17.998;2023-03-11T09:07:52;6.83;;;2.57;;
13485;SDS011;6815;59.336;17.998;2023-03-11T09:10:18;4.73;;;2.47;;
13485;SDS011;6815;59.336;17.998;2023-03-11T09:12:43;2.73;;;2.17;;
13485;SDS011;6815;59.336;17.998;2023-03-11T09:15:13;3.20;;;2.50;;
13485;SDS011;6815;59.336;17.998;2023-03-11T09:17:43;4.47;;;2.23;;
13485;SDS011;6815;59.336;17.998;2023-03-11T09:20:10;5.20;;;2.60;;
13485;SDS011;6815;59.336;17.998;2023-03-11T09:22:37;3.73;;;2.60;;
13485;SDS011;6815;59.336;17.998;2023-03-11T09:25:03;3.47;;;2.23;;
13485;SDS011;6815;59.336;17.998;2023-03-11T09:27:28;2.63;;;2.23;;
13485;SDS011;6815;59.336;17.998;2023-03-11T09:29:54;4.13;;;2.30;;
13485;SDS011;6815;59.336;17.998;2023-03-11T09:32:19;4.00;;;2.23;;
13485;SDS011;6815;59.336;17.998;2023-03-11T09:34:45;2.33;;;2.03;;
13485;SDS011;6815;59.336;17.998;2023-03-11T09:37:10;5.13;;;2.30;;
13485;SDS011;6815;59.336;17.998;2023-03-11T09:39:36;3.10;;;2.30;;
13485;SDS011;6815;59.336;17.998;2023-03-11T09:42:02;3.17;;;2.47;;
13485;SDS011;6815;59.336;17.998;2023-03-11T09:47:12;3.50;;;2.20;;
13485;SDS011;6815;59.336;17.998;2023-03-11T09:52:16;3.17;;;1.90;;
13485;SDS011;6815;59.336;17.998;2023-03-11T09:54:50;3.30;;;2.10;;
13485;SDS011;6815;59.336;17.998;2023-03-11T09:57:21;2.83;;;2.00;;
13485;SDS011;6815;59.336;17.998;2023-03-11T09:59:49;4.30;;;2.00;;
13485;SDS011;6815;59.336;17.998;2023-03-11T10:02:19;2.60;;;1.97;;
13485;SDS011;6815;59.336;17.998;2023-03-11T10:04:53;3.73;;;2.10;;
13485;SDS011;6815;59.336;17.998;2023-03-11T10:07:27;3.07;;;2.13;;
13485;SDS011;6815;59.336;17.998;2023-03-11T10:09:57;3.97;;;2.60;;
13485;SDS011;6815;59.336;17.998;2023-03-11T10:15:02;6.17;;;2.50;;
13485;SDS011;6815;59.336;17.998;2023-03-11T10:20:26;3.87;;;2.30;;
13485;SDS011;6815;59.336;17.998;2023-03-11T10:25:47;3.43;;;2.43;;
13485;SDS011;6815;59.336;17.998;2023-03-11T10:28:18;5.37;;;2.30;;
13485;SDS011;6815;59.336;17.998;2023-03-11T10:30:47;5.63;;;2.80;;
13485;SDS011;6815;59.336;17.998;2023-03-11T10:33:28;3.37;;;2.30;;
13485;SDS011;6815;59.336;17.998;2023-03-11T10:36:05;7.00;;;2.27;;
13485;SDS011;6815;59.336;17.998;2023-03-11T10:38:41;3.10;;;2.40;;
13485;SDS011;6815;59.336;17.998;2023-03-11T10:41:12;3.23;;;2.30;;
13485;SDS011;6815;59.336;17.998;2023-03-11T10:43:40;5.37;;;2.17;;
13485;SDS011;6815;59.336;17.998;2023-03-11T10:46:17;3.10;;;2.40;;
13485;SDS011;6815;59.336;17.998;2023-03-11T10:48:47;5.00;;;2.67;;
13485;SDS011;6815;59.336;17.998;2023-03-11T10:51:20;6.13;;;2.77;;
13485;SDS011;6815;59.336;17.998;2023-03-11T10:53:49;4.60;;;2.73;;
13485;SDS011;6815;59.336;17.998;2023-03-11T10:56:53;7.07;;;2.70;;
13485;SDS011;6815;59.336;17.998;2023-03-11T11:04:46;4.13;;;2.43;;
13485;SDS011;6815;59.336;17.998;2023-03-11T11:07:34;2.93;;;2.37;;
13485;SDS011;6815;59.336;17.998;2023-03-11T11:13:32;3.83;;;2.87;;
13485;SDS011;6815;59.336;17.998;2023-03-11T11:15:39;4.17;;;2.77;;
13485;SDS011;6815;59.336;17.998;2023-03-11T11:20:53;3.50;;;2.67;;
13485;SDS011;6815;59.336;17.998;2023-03-11T11:23:25;4.63;;;3.17;;
13485;SDS011;6815;59.336;17.998;2023-03-11T11:26:01;3.93;;;2.80;;
13485;SDS011;6815;59.336;17.998;2023-03-11T11:28:29;4.07;;;2.67;;
13485;SDS011;6815;59.336;17.998;2023-03-11T11:31:00;6.33;;;2.50;;
13485;SDS011;6815;59.336;17.998;2023-03-11T11:33:29;3.63;;;2.67;;
13485;SDS011;6815;59.336;17.998;2023-03-11T11:36:05;3.10;;;2.70;;
13485;SDS011;6815;59.336;17.998;2023-03-11T11:38:38;4.27;;;2.67;;
13485;SDS011;6815;59.336;17.998;2023-03-11T11:41:04;4.23;;;2.90;;
13485;SDS011;6815;59.336;17.998;2023-03-11T11:43:45;4.53;;;2.80;;
13485;SDS011;6815;59.336;17.998;2023-03-11T11:49:24;3.03;;;2.73;;
13485;SDS011;6815;59.336;17.998;2023-03-11T11:57:35;4.50;;;2.60;;
13485;SDS011;6815;59.336;17.998;2023-03-11T12:00:01;3.30;;;2.73;;
13485;SDS011;6815;59.336;17.998;2023-03-11T12:05:30;3.10;;;2.80;;
13485;SDS011;6815;59.336;17.998;2023-03-11T12:11:35;3.00;;;2.27;;
13485;SDS011;6815;59.336;17.998;2023-03-11T12:28:15;5.03;;;2.47;;
13485;SDS011;6815;59.336;17.998;2023-03-11T12:30:21;3.87;;;2.70;;
13485;SDS011;6815;59.336;17.998;2023-03-11T12:32:53;4.20;;;2.80;;
13485;SDS011;6815;59.336;17.998;2023-03-11T12:35:20;4.63;;;2.40;;
13485;SDS011;6815;59.336;17.998;2023-03-11T12:37:56;3.17;;;2.47;;
13485;SDS011;6815;59.336;17.998;2023-03-11T12:45:53;5.67;;;2.57;;
13485;SDS011;6815;59.336;17.998;2023-03-11T12:50:54;3.27;;;2.50;;
13485;SDS011;6815;59.336;17.998;2023-03-11T12:53:36;3.33;;;2.87;;
13485;SDS011;6815;59.336;17.998;2023-03-11T13:01:43;3.17;;;2.10;;
13485;SDS011;6815;59.336;17.998;2023-03-11T13:09:58;3.23;;;2.20;;
13485;SDS011;6815;59.336;17.998;2023-03-11T13:12:44;3.43;;;2.27;;
13485;SDS011;6815;59.336;17.998;2023-03-11T13:25:40;2.47;;;2.00;;
13485;SDS011;6815;59.336;17.998;2023-03-11T13:30:39;2.77;;;2.20;;
13485;SDS011;6815;59.336;17.998;2023-03-11T13:41:15;1.97;;;1.87;;
13485;SDS011;6815;59.336;17.998;2023-03-11T13:43:46;3.93;;;2.13;;
13485;SDS011;6815;59.336;17.998;2023-03-11T13:46:30;2.37;;;1.87;;
13485;SDS011;6815;59.336;17.998;2023-03-11T13:49:04;3.13;;;2.10;;
13485;SDS011;6815;59.336;17.998;2023-03-11T13:51:41;3.03;;;2.17;;
13485;SDS011;6815;59.336;17.998;2023-03-11T13:57:04;3.40;;;2.10;;
13485;SDS011;6815;59.336;17.998;2023-03-11T13:59:31;3.83;;;1.93;;
13485;SDS011;6815;59.336;17.998;2023-03-11T14:02:20;2.47;;;1.80;;
13485;SDS011;6815;59.336;17.998;2023-03-11T14:07:39;3.20;;;2.20;;
13485;SDS011;6815;59.336;17.998;2023-03-11T14:10:14;4.07;;;2.10;;
13485;SDS011;6815;59.336;17.998;2023-03-11T14:12:39;2.33;;;1.83;;
13485;SDS011;6815;59.336;17.998;2023-03-11T14:15:06;3.43;;;2.00;;
13485;SDS011;6815;59.336;17.998;2023-03-11T14:17:33;3.13;;;1.87;;
13485;SDS011;6815;59.336;17.998;2023-03-11T14:22:57;1.80;;;1.60;;
13485;SDS011;6815;59.336;17.998;2023-03-11T14:25:23;3.07;;;1.60;;
13485;SDS011;6815;59.336;17.998;2023-03-11T14:27:58;1.50;;;1.30;;
13485;SDS011;6815;59.336;17.998;2023-03-11T14:30:29;1.77;;;1.20;;
13485;SDS011;6815;59.336;17.998;2023-03-11T14:33:04;2.60;;;1.20;;
13485;SDS011;6815;59.336;17.998;2023-03-11T14:35:49;1.80;;;1.10;;
13485;SDS011;6815;59.336;17.998;2023-03-11T14:38:21;1.57;;;1.10;;
13485;SDS011;6815;59.336;17.998;2023-03-11T14:40:55;1.57;;;0.97;;
13485;SDS011;6815;59.336;17.998;2023-03-11T14:43:24;2.57;;;1.07;;
13485;SDS011;6815;59.336;17.998;2023-03-11T14:45:57;1.53;;;1.03;;
13485;SDS011;6815;59.336;17.998;2023-03-11T14:48:28;1.33;;;1.23;;
13485;SDS011;6815;59.336;17.998;2023-03-11T14:50:55;1.03;;;0.90;;
13485;SDS011;6815;59.336;17.998;2023-03-11T14:53:29;1.60;;;0.73;;
13485;SDS011;6815;59.336;17.998;2023-03-11T14:56:06;2.87;;;1.00;;
13485;SDS011;6815;59.336;17.998;2023-03-11T14:58:40;0.97;;;0.87;;
13485;SDS011;6815;59.336;17.998;2023-03-11T15:01:12;2.10;;;0.80;;
13485;SDS011;6815;59.336;17.998;2023-03-11T15:03:55;0.93;;;0.70;;
13485;SDS011;6815;59.336;17.998;2023-03-11T15:06:25;0.97;;;0.77;;
13485;SDS011;6815;59.336;17.998;2023-03-11T15:11:42;0.83;;;0.60;;
13485;SDS011;6815;59.336;17.998;2023-03-11T15:19:43;1.33;;;0.60;;
13485;SDS011;6815;59.336;17.998;2023-03-11T15:24:56;1.67;;;0.80;;
13485;SDS011;6815;59.336;17.998;2023-03-11T15:27:28;1.07;;;0.97;;
13485;SDS011;6815;59.336;17.998;2023-03-11T15:29:54;0.97;;;0.70;;
13485;SDS011;6815;59.336;17.998;2023-03-11T15:37:33;1.27;;;0.70;;
13485;SDS011;6815;59.336;17.998;2023-03-11T15:40:20;2.33;;;0.90;;
13485;SDS011;6815;59.336;17.998;2023-03-11T15:45:50;1.93;;;0.83;;
13485;SDS011;6815;59.336;17.998;2023-03-11T15:48:18;1.63;;;0.80;;
13485;SDS011;6815;59.336;17.998;2023-03-11T15:50:54;2.90;;;1.23;;
13485;SDS011;6815;59.336;17.998;2023-03-11T15:53:23;1.40;;;0.97;;
13485;SDS011;6815;59.336;17.998;2023-03-11T15:55:49;0.97;;;0.87;;
13485;SDS011;6815;59.336;17.998;2023-03-11T15:58:16;2.23;;;0.83;;
13485;SDS011;6815;59.336;17.998;2023-03-11T16:00:53;0.90;;;0.77;;
13485;SDS011;6815;59.336;17.998;2023-03-11T16:03:20;1.43;;;0.97;;
13485;SDS011;6815;59.336;17.998;2023-03-11T16:05:46;1.50;;;0.80;;
13485;SDS011;6815;59.336;17.998;2023-03-11T16:08:12;1.23;;;0.90;;
13485;SDS011;6815;59.336;17.998;2023-03-11T16:10:38;1.03;;;0.87;;
13485;SDS011;6815;59.336;17.998;2023-03-11T16:13:04;1.73;;;0.93;;
13485;SDS011;6815;59.336;17.998;2023-03-11T16:15:31;2.30;;;1.00;;
13485;SDS011;6815;59.336;17.998;2023-03-11T16:17:59;1.27;;;1.00;;
13485;SDS011;6815;59.336;17.998;2023-03-11T16:20:28;1.10;;;0.70;;
13485;SDS011;6815;59.336;17.998;2023-03-11T16:22:57;2.00;;;1.00;;
13485;SDS011;6815;59.336;17.998;2023-03-11T16:25:28;1.37;;;1.00;;
13485;SDS011;6815;59.336;17.998;2023-03-11T16:28:02;2.10;;;1.07;;
13485;SDS011;6815;59.336;17.998;2023-03-11T16:30:29;2.13;;;0.90;;
13485;SDS011;6815;59.336;17.998;2023-03-11T16:32:57;1.53;;;1.17;;
13485;SDS011;6815;59.336;17.998;2023-03-11T16:35:23;1.53;;;1.00;;
13485;SDS011;6815;59.336;17.998;2023-03-11T16:37:49;1.63;;;0.97;;
13485;SDS011;6815;59.336;17.998;2023-03-11T16:40:16;1.60;;;1.00;;
13485;SDS011;6815;59.336;17.998;2023-03-11T16:42:44;1.87;;;1.20;;
13485;SDS011;6815;59.336;17.998;2023-03-11T16:45:11;1.70;;;1.10;;
13485;SDS011;6815;59.336;17.998;2023-03-11T16:47:39;1.57;;;1.10;;
13485;SDS011;6815;59.336;17.998;2023-03-11T16:50:05;1.50;;;0.97;;
13485;SDS011;6815;59.336;17.998;2023-03-11T16:52:31;1.37;;;1.10;;
13485;SDS011;6815;59.336;17.998;2023-03-11T16:54:57;1.67;;;0.90;;
13485;SDS011;6815;59.336;17.998;2023-03-11T16:57:22;2.87;;;1.10;;
13485;SDS011;6815;59.336;17.998;2023-03-11T16:59:48;1.97;;;1.20;;